Time;durP1;ratioP1;P1;durP2;ratioP2;P2;SDS_P1;SDS_P2;PMS_P1;PMS_P2;Temp;Humidity;BMP_temperature;BMP_pressure;BME280_temperature;BME280_humidity;BME280_pressure;Samples;Min_cycle;Max_cycle;Signal;HPM_P1;HPM_P2
2022/07/30 00:01:14;;;;;;;11.07;5.93;;;17.30;65.10;;;;;;5059594;28;46353;-67
2022/07/30 00:03:40;;;;;;;13.13;5.80;;;17.30;65.00;;;;;;5060366;28;46432;-68
2022/07/30 00:06:05;;;;;;;10.93;6.63;;;17.40;64.90;;;;;;5062280;28;46453;-68
2022/07/30 00:08:31;;;;;;;16.33;6.00;;;17.40;64.50;;;;;;5060795;28;46423;-68
2022/07/30 00:10:56;;;;;;;13.60;6.37;;;17.50;64.30;;;;;;5062161;28;46409;-67
2022/07/30 00:13:22;;;;;;;12.03;6.20;;;17.50;64.10;;;;;;5061187;28;46360;-67
2022/07/30 00:15:48;;;;;;;8.20;6.10;;;17.40;63.90;;;;;;5062885;28;46454;-67
2022/07/30 00:18:13;;;;;;;10.03;5.80;;;17.50;63.90;;;;;;5070326;28;48111;-68
2022/07/30 00:20:40;;;;;;;10.90;5.93;;;17.50;63.90;;;;;;5061834;27;46353;-67
2022/07/30 00:23:06;;;;;;;16.93;5.90;;;17.50;63.90;;;;;;5060078;28;46384;-68
2022/07/30 00:25:31;;;;;;;12.87;6.70;;;17.50;63.70;;;;;;5061989;28;46522;-67
2022/07/30 00:27:57;;;;;;;13.17;5.40;;;17.50;63.60;;;;;;5058225;28;45987;-67
2022/07/30 00:30:23;;;;;;;9.90;5.73;;;17.50;63.50;;;;;;5061352;28;46470;-67
2022/07/30 00:32:49;;;;;;;11.70;5.50;;;17.50;63.60;;;;;;5058718;28;46485;-67
2022/07/30 00:35:14;;;;;;;11.37;5.47;;;17.50;63.60;;;;;;5062041;28;46488;-67
2022/07/30 00:37:40;;;;;;;12.97;5.57;;;17.50;63.70;;;;;;5057587;28;46651;-67
2022/07/30 00:40:08;;;;;;;11.60;4.77;;;17.60;63.60;;;;;;5061769;28;46315;-67
2022/07/30 00:42:42;;;;;;;13.40;5.10;;;17.60;63.60;;;;;;5060566;28;46388;-68
2022/07/30 00:45:09;;;;;;;16.97;5.93;;;17.60;63.70;;;;;;5062389;28;46649;-67
2022/07/30 00:47:35;;;;;;;8.97;5.37;;;17.60;63.80;;;;;;5060309;28;48000;-67
2022/07/30 00:50:03;;;;;;;9.27;4.87;;;17.50;63.90;;;;;;5060605;28;46396;-68
2022/07/30 00:52:30;;;;;;;7.30;4.80;;;17.50;64.10;;;;;;5060935;28;46498;-67
2022/07/30 00:54:56;;;;;;;10.83;5.50;;;17.40;64.10;;;;;;5059494;28;46708;-67
2022/07/30 00:57:22;;;;;;;7.30;4.63;;;17.40;64.30;;;;;;5059286;28;47268;-67
2022/07/30 00:59:48;;;;;;;12.10;5.03;;;17.30;64.60;;;;;;5059969;28;46456;-66
2022/07/30 01:02:13;;;;;;;8.77;5.20;;;17.30;64.70;;;;;;5062108;28;46413;-67
2022/07/30 01:04:39;;;;;;;8.20;5.30;;;17.20;64.70;;;;;;5059810;28;46578;-67
2022/07/30 01:07:04;;;;;;;12.67;5.20;;;17.20;65.00;;;;;;5057816;28;47158;-67
2022/07/30 01:09:30;;;;;;;8.63;5.27;;;17.10;65.10;;;;;;5060344;28;46436;-67
2022/07/30 01:11:56;;;;;;;9.63;4.90;;;17.10;64.20;;;;;;5058931;28;46427;-67
2022/07/30 01:14:22;;;;;;;14.83;6.20;;;17.10;65.20;;;;;;5060104;28;46430;-68
2022/07/30 01:16:48;;;;;;;9.10;5.07;;;17.00;65.20;;;;;;5059820;28;45969;-68
2022/07/30 01:22:50;;;;;;;10.43;6.00;;;16.90;65.50;;;;;;5059607;28;46405;-68
2022/07/30 01:25:21;;;;;;;12.97;5.47;;;16.90;65.70;;;;;;5059186;28;46513;-68
2022/07/30 01:27:50;;;;;;;11.23;5.27;;;16.90;65.50;;;;;;5059760;28;46630;-68
2022/07/30 01:30:20;;;;;;;10.50;5.20;;;16.90;65.50;;;;;;5059417;28;46455;-66
2022/07/30 01:32:47;;;;;;;11.40;5.93;;;16.80;65.40;;;;;;5060414;28;46507;-68
2022/07/30 01:35:13;;;;;;;9.80;5.10;;;16.80;65.50;;;;;;5057320;28;46562;-68
2022/07/30 01:37:41;;;;;;;9.60;4.67;;;16.80;65.60;;;;;;5059462;28;46212;-69
2022/07/30 01:40:08;;;;;;;9.90;5.00;;;16.80;65.70;;;;;;5059938;28;46482;-68
2022/07/30 01:42:36;;;;;;;6.20;4.57;;;16.70;65.70;;;;;;5059597;28;46346;-68
2022/07/30 01:45:03;;;;;;;9.90;5.10;;;16.60;65.80;;;;;;5060475;28;46142;-67
2022/07/30 01:47:32;;;;;;;15.13;4.97;;;16.60;66.10;;;;;;5059390;28;46593;-68
2022/07/30 01:50:00;;;;;;;6.60;4.53;;;16.50;66.40;;;;;;5059404;28;46560;-67
2022/07/30 01:52:29;;;;;;;6.03;4.50;;;16.50;66.60;;;;;;5057684;28;45803;-67
2022/07/30 01:54:57;;;;;;;9.70;4.83;;;16.50;66.60;;;;;;5058257;28;46056;-67
2022/07/30 01:57:24;;;;;;;10.00;4.30;;;16.50;66.40;;;;;;5058719;28;48296;-67
2022/07/30 01:59:56;;;;;;;7.90;4.33;;;16.50;66.10;;;;;;5059850;28;45766;-68
2022/07/30 02:02:22;;;;;;;7.03;4.60;;;16.60;67.10;;;;;;5060180;28;46358;-67
2022/07/30 02:04:48;;;;;;;7.90;4.90;;;16.60;65.60;;;;;;5060353;28;46347;-68
2022/07/30 02:07:23;;;;;;;8.67;4.60;;;16.70;65.50;;;;;;5058641;28;46354;-68
2022/07/30 02:10:03;;;;;;;6.50;4.30;;;16.70;65.40;;;;;;5058201;28;46390;-67
2022/07/30 02:12:31;;;;;;;6.07;4.20;;;16.80;65.30;;;;;;5060958;28;46414;-67
2022/07/30 02:15:09;;;;;;;12.20;4.53;;;16.80;65.10;;;;;;5058872;28;46355;-67
2022/07/30 02:17:42;;;;;;;7.30;4.30;;;16.80;65.10;;;;;;5059993;28;46322;-67
2022/07/30 02:20:11;;;;;;;9.00;4.50;;;16.90;65.20;;;;;;5061747;28;46410;-68
2022/07/30 02:22:39;;;;;;;6.00;4.40;;;16.90;65.00;;;;;;5063575;28;46319;-68
2022/07/30 02:25:07;;;;;;;8.20;4.20;;;16.90;64.90;;;;;;5062284;28;45913;-67
2022/07/30 02:27:36;;;;;;;7.03;4.23;;;16.90;65.10;;;;;;5061858;28;46910;-68
2022/07/30 02:30:02;;;;;;;6.97;4.60;;;16.90;65.10;;;;;;5062112;28;45845;-67
2022/07/30 02:32:34;;;;;;;9.57;4.60;;;17.00;65.00;;;;;;5063706;28;46763;-67
2022/07/30 02:35:09;;;;;;;6.93;5.00;;;17.00;64.80;;;;;;5062901;28;46370;-67
2022/07/30 02:37:36;;;;;;;7.53;4.40;;;17.10;64.80;;;;;;5058030;28;46452;-67
2022/07/30 02:40:02;;;;;;;9.83;4.60;;;17.10;64.70;;;;;;5063285;28;46477;-67
2022/07/30 02:42:28;;;;;;;7.70;4.30;;;17.20;64.60;;;;;;5063039;28;46360;-66
2022/07/30 02:44:57;;;;;;;11.87;4.43;;;17.20;64.40;;;;;;5063472;28;46434;-67
2022/07/30 02:47:23;;;;;;;6.10;4.73;;;17.20;64.30;;;;;;5060860;28;46499;-68
2022/07/30 02:49:51;;;;;;;7.27;4.57;;;17.20;64.20;;;;;;5063927;28;46436;-68
2022/07/30 02:52:17;;;;;;;5.60;4.13;;;17.30;64.30;;;;;;5062313;28;45842;-67
2022/07/30 02:54:44;;;;;;;15.53;4.70;;;17.30;64.30;;;;;;5061975;28;45809;-67
2022/07/30 02:57:11;;;;;;;10.00;5.13;;;17.30;64.40;;;;;;5062999;28;46696;-68
2022/07/30 02:59:39;;;;;;;6.03;4.80;;;17.30;64.50;;;;;;5064140;28;46112;-68
2022/07/30 03:02:08;;;;;;;7.17;4.50;;;17.30;64.50;;;;;;5061120;28;45842;-66
2022/07/30 03:04:36;;;;;;;17.20;5.80;;;17.30;64.50;;;;;;5063408;28;46468;-68
2022/07/30 03:07:02;;;;;;;8.83;4.80;;;17.30;64.50;;;;;;5064134;28;46949;-68
2022/07/30 03:09:28;;;;;;;8.37;4.40;;;17.30;64.60;;;;;;5062159;28;46545;-68
2022/07/30 03:11:56;;;;;;;7.80;4.47;;;17.30;63.40;;;;;;5062609;28;46504;-67
2022/07/30 03:14:22;;;;;;;10.70;5.07;;;17.30;64.40;;;;;;5062780;28;46322;-67
2022/07/30 03:16:54;;;;;;;10.13;4.20;;;17.30;64.50;;;;;;5061762;28;47186;-67
2022/07/30 03:19:22;;;;;;;8.37;4.30;;;17.30;64.60;;;;;;5061320;28;46486;-67
2022/07/30 03:21:49;;;;;;;7.23;4.67;;;17.40;63.30;;;;;;5062821;28;46421;-67
2022/07/30 03:24:16;;;;;;;7.83;4.17;;;17.40;64.30;;;;;;5062150;28;46405;-67
2022/07/30 03:26:44;;;;;;;8.80;4.60;;;17.30;64.30;;;;;;5061700;28;47478;-67
2022/07/30 03:29:12;;;;;;;6.60;4.40;;;17.30;64.50;;;;;;5061668;28;46361;-67
2022/07/30 03:31:39;;;;;;;8.23;4.93;;;17.30;63.50;;;;;;5060889;28;46373;-67
2022/07/30 03:34:07;;;;;;;11.00;4.80;;;17.30;64.70;;;;;;5061645;28;46449;-67
2022/07/30 03:36:34;;;;;;;7.60;4.70;;;17.30;64.70;;;;;;5062845;28;47128;-67
2022/07/30 03:39:01;;;;;;;10.40;4.47;;;17.30;64.70;;;;;;5062008;28;46288;-68
2022/07/30 03:41:27;;;;;;;5.83;4.13;;;17.20;64.70;;;;;;5061713;28;46650;-67
2022/07/30 03:43:55;;;;;;;8.43;3.83;;;17.20;64.70;;;;;;5061399;28;46532;-68
2022/07/30 03:46:21;;;;;;;9.07;4.70;;;17.20;64.80;;;;;;5063102;28;46182;-67
2022/07/30 03:48:47;;;;;;;8.90;4.00;;;17.20;64.70;;;;;;5060356;28;46606;-67
2022/07/30 03:51:15;;;;;;;5.23;4.40;;;17.20;64.70;;;;;;5062430;28;46392;-67
2022/07/30 03:53:41;;;;;;;6.00;4.43;;;17.20;64.70;;;;;;5062067;28;46271;-68
2022/07/30 03:56:07;;;;;;;15.00;4.40;;;17.30;64.70;;;;;;5062531;28;47147;-68
2022/07/30 03:58:33;;;;;;;9.30;4.47;;;17.20;64.70;;;;;;5060727;28;46354;-68
2022/07/30 04:00:59;;;;;;;6.93;4.33;;;17.20;64.70;;;;;;5062106;28;46370;-68
2022/07/30 04:03:25;;;;;;;10.83;4.20;;;17.20;64.80;;;;;;5060525;28;46066;-67
2022/07/30 04:05:51;;;;;;;6.00;4.17;;;17.20;64.80;;;;;;5061774;28;46455;-67
2022/07/30 04:08:16;;;;;;;10.57;4.27;;;17.20;64.80;;;;;;5060732;28;46342;-67
2022/07/30 04:10:42;;;;;;;6.63;4.60;;;17.20;64.70;;;;;;5060959;28;46420;-68
2022/07/30 04:13:08;;;;;;;7.00;4.10;;;17.20;63.70;;;;;;5059313;28;46449;-68
2022/07/30 04:15:42;;;;;;;6.97;3.70;;;17.20;64.70;;;;;;5063290;28;46378;-68
2022/07/30 04:18:12;;;;;;;5.67;4.10;;;17.20;64.40;;;;;;5059049;28;46373;-67
2022/07/30 04:20:43;;;;;;;6.93;3.90;;;17.20;64.40;;;;;;5060998;28;46417;-67
2022/07/30 04:23:10;;;;;;;6.00;4.03;;;17.30;64.10;;;;;;5061791;28;46505;-67
2022/07/30 04:25:37;;;;;;;8.07;3.53;;;17.30;64.00;;;;;;5060841;28;46368;-66
2022/07/30 04:28:08;;;;;;;6.50;4.27;;;17.30;63.80;;;;;;5060254;28;46389;-68
2022/07/30 04:30:33;;;;;;;8.10;3.90;;;17.40;63.60;;;;;;5059851;28;46305;-68
2022/07/30 04:33:00;;;;;;;7.63;4.13;;;17.50;63.40;;;;;;5059190;28;46416;-67
2022/07/30 04:35:30;;;;;;;6.30;3.90;;;17.50;63.10;;;;;;5061213;28;46615;-67
2022/07/30 04:37:55;;;;;;;8.23;4.40;;;17.60;62.80;;;;;;5058063;28;46765;-67
2022/07/30 04:40:21;;;;;;;8.00;3.63;;;17.70;62.70;;;;;;5058853;28;46432;-67
2022/07/30 04:42:47;;;;;;;6.60;3.53;;;17.80;62.60;;;;;;5058281;28;45899;-67
2022/07/30 04:45:12;;;;;;;7.90;3.80;;;17.70;62.30;;;;;;5057407;28;46082;-68
2022/07/30 04:47:38;;;;;;;8.20;3.90;;;17.80;62.30;;;;;;5055213;28;46423;-67
2022/07/30 04:50:06;;;;;;;7.00;3.70;;;17.90;62.00;;;;;;5058389;28;46115;-67
2022/07/30 04:52:33;;;;;;;6.43;4.40;;;17.90;63.00;;;;;;5060284;28;46534;-67
2022/07/30 04:55:02;;;;;;;4.70;3.80;;;17.90;61.90;;;;;;5057019;28;46455;-68
2022/07/30 04:57:30;;;;;;;6.97;4.80;;;18.00;61.80;;;;;;5057519;28;46627;-67
2022/07/30 04:59:56;;;;;;;5.50;3.73;;;18.00;61.70;;;;;;5058104;28;45768;-67
2022/07/30 05:02:27;;;;;;;7.40;4.70;;;18.00;61.70;;;;;;5058553;28;46437;-66
2022/07/30 05:04:53;;;;;;;6.63;4.20;;;18.00;61.80;;;;;;5059204;28;47239;-68
2022/07/30 05:07:20;;;;;;;6.30;4.33;;;18.00;61.80;;;;;;5059753;28;46396;-67
2022/07/30 05:09:46;;;;;;;10.27;3.80;;;18.00;62.00;;;;;;5060951;28;45738;-67
2022/07/30 05:12:12;;;;;;;6.67;4.17;;;17.90;62.20;;;;;;5059880;28;46579;-67
2022/07/30 05:14:38;;;;;;;6.40;3.80;;;17.90;62.30;;;;;;5058358;28;46393;-67
2022/07/30 05:17:03;;;;;;;6.70;4.17;;;17.90;62.50;;;;;;5057977;28;46619;-67
2022/07/30 05:19:29;;;;;;;7.10;4.10;;;17.90;62.90;;;;;;5060232;28;46340;-67
2022/07/30 05:21:55;;;;;;;7.67;4.10;;;17.90;62.10;;;;;;5061174;28;46635;-67
2022/07/30 05:24:21;;;;;;;7.00;4.00;;;17.90;63.00;;;;;;5059906;28;45989;-67
2022/07/30 05:26:46;;;;;;;5.60;4.43;;;18.00;62.90;;;;;;5060010;28;46424;-67
2022/07/30 05:29:13;;;;;;;11.87;5.00;;;18.00;62.70;;;;;;5060644;28;46680;-68
2022/07/30 05:31:38;;;;;;;6.17;4.90;;;18.00;62.30;;;;;;5061630;28;46274;-67
2022/07/30 05:34:04;;;;;;;8.67;4.50;;;18.10;62.60;;;;;;5057139;28;47614;-68
2022/07/30 05:36:30;;;;;;;7.73;4.30;;;18.20;61.80;;;;;;5060179;28;46518;-68
2022/07/30 05:38:55;;;;;;;9.33;4.33;;;18.30;61.30;;;;;;5062003;28;46478;-67
2022/07/30 05:41:21;;;;;;;7.87;4.43;;;18.40;61.10;;;;;;5060391;28;46583;-67
2022/07/30 05:43:47;;;;;;;6.67;4.50;;;18.50;60.90;;;;;;5066499;28;47098;-67
2022/07/30 05:46:12;;;;;;;7.00;4.47;;;18.60;60.50;;;;;;5060697;28;46757;-67
2022/07/30 05:48:38;;;;;;;7.77;4.33;;;18.70;60.20;;;;;;5059313;28;46385;-67
2022/07/30 05:51:04;;;;;;;7.33;4.70;;;18.90;59.90;;;;;;5060850;28;46541;-67
2022/07/30 05:53:30;;;;;;;5.73;4.37;;;19.00;60.00;;;;;;5062625;28;46483;-68
2022/07/30 05:55:56;;;;;;;9.43;4.23;;;19.10;60.00;;;;;;5064363;28;46418;-67
2022/07/30 05:58:22;;;;;;;7.03;4.40;;;19.20;60.00;;;;;;5063556;28;46481;-68
2022/07/30 06:00:48;;;;;;;11.73;3.77;;;20.20;58.50;;;;;;5062199;28;46589;-67
2022/07/30 06:03:14;;;;;;;6.73;3.70;;;20.70;57.10;;;;;;5060611;28;48188;-67
2022/07/30 06:05:39;;;;;;;7.00;3.37;;;21.00;56.50;;;;;;5062880;28;46539;-67
2022/07/30 06:08:05;;;;;;;14.63;3.47;;;21.50;55.20;;;;;;5062903;28;46407;-69
2022/07/30 06:10:31;;;;;;;5.20;3.40;;;22.40;52.50;;;;;;5062945;28;46403;-68
2022/07/30 06:12:57;;;;;;;8.77;3.97;;;23.10;50.50;;;;;;5063432;28;46430;-68
2022/07/30 06:15:22;;;;;;;8.37;3.67;;;23.10;50.50;;;;;;5065131;28;46579;-68
2022/07/30 06:17:48;;;;;;;5.83;3.43;;;23.50;47.20;;;;;;5062393;28;46409;-66
2022/07/30 06:20:15;;;;;;;4.70;3.43;;;24.00;45.40;;;;;;5062408;28;46421;-67
2022/07/30 06:22:41;;;;;;;6.73;4.33;;;24.40;42.70;;;;;;5063778;28;46362;-69
2022/07/30 06:25:08;;;;;;;7.90;4.37;;;24.50;42.70;;;;;;5063930;28;46526;-68
2022/07/30 06:27:35;;;;;;;7.00;3.60;;;23.60;43.80;;;;;;5062400;28;46290;-68
2022/07/30 06:30:02;;;;;;;8.03;4.27;;;23.10;48.00;;;;;;5063571;28;46380;-68
2022/07/30 06:32:28;;;;;;;10.70;3.90;;;22.60;49.20;;;;;;5062463;28;47225;-68
2022/07/30 06:34:53;;;;;;;9.43;4.03;;;22.20;48.20;;;;;;5063897;28;46378;-67
2022/07/30 06:37:19;;;;;;;6.43;4.20;;;22.10;47.00;;;;;;5062816;28;46408;-69
2022/07/30 06:39:44;;;;;;;8.07;4.60;;;23.10;43.20;;;;;;5065291;28;46402;-69
2022/07/30 06:42:10;;;;;;;6.20;3.70;;;23.90;38.20;;;;;;5067244;28;47221;-69
2022/07/30 06:44:35;;;;;;;9.43;4.53;;;24.50;37.00;;;;;;5063827;28;46422;-69
2022/07/30 06:47:01;;;;;;;14.33;4.77;;;24.80;36.80;;;;;;5062019;28;46388;-69
2022/07/30 06:49:27;;;;;;;7.30;3.90;;;24.20;38.70;;;;;;5070390;28;45871;-70
2022/07/30 06:51:52;;;;;;;7.20;4.20;;;23.70;43.10;;;;;;5064196;28;47207;-69
2022/07/30 06:54:18;;;;;;;6.80;4.60;;;23.60;44.00;;;;;;5063680;28;46392;-67
2022/07/30 06:56:43;;;;;;;6.20;3.73;;;23.20;44.20;;;;;;5063224;28;46527;-70
2022/07/30 06:59:09;;;;;;;6.33;3.83;;;23.10;45.00;;;;;;5063206;28;46578;-69
2022/07/30 07:01:35;;;;;;;5.97;3.93;;;22.90;45.70;;;;;;5064088;28;47752;-69
2022/07/30 07:04:00;;;;;;;8.40;3.97;;;22.70;45.20;;;;;;5060854;28;46397;-67
2022/07/30 07:06:26;;;;;;;11.50;4.30;;;22.60;45.50;;;;;;5063243;28;46564;-69
2022/07/30 07:08:51;;;;;;;5.67;4.17;;;22.50;45.50;;;;;;5061341;28;46418;-68
2022/07/30 07:11:17;;;;;;;8.60;4.23;;;22.40;45.10;;;;;;5063183;28;46398;-68
2022/07/30 07:13:42;;;;;;;7.23;4.60;;;22.40;44.60;;;;;;5060820;28;45822;-68
2022/07/30 07:16:08;;;;;;;10.07;4.47;;;22.50;44.30;;;;;;5063218;28;46428;-68
2022/07/30 07:18:34;;;;;;;17.40;4.90;;;22.50;43.80;;;;;;5062689;28;46943;-68
2022/07/30 07:20:59;;;;;;;8.57;5.17;;;22.30;43.10;;;;;;5063242;28;47068;-68
2022/07/30 07:23:25;;;;;;;12.33;5.53;;;22.20;42.90;;;;;;5066249;28;46479;-68
2022/07/30 07:25:50;;;;;;;10.27;5.10;;;22.20;43.30;;;;;;5061493;28;46908;-68
2022/07/30 07:28:16;;;;;;;10.20;5.50;;;22.40;43.00;;;;;;5061906;28;46533;-69
2022/07/30 07:30:42;;;;;;;11.40;6.23;;;22.40;42.90;;;;;;5059012;28;46454;-69
2022/07/30 07:33:09;;;;;;;12.00;6.50;;;22.40;42.30;;;;;;5061224;28;46385;-68
2022/07/30 07:35:35;;;;;;;7.70;4.80;;;22.40;42.40;;;;;;5062251;28;46647;-68
2022/07/30 07:38:01;;;;;;;10.57;5.90;;;22.40;42.30;;;;;;5059149;28;46401;-69
2022/07/30 07:40:26;;;;;;;13.93;5.23;;;22.50;42.10;;;;;;5061652;28;46947;-67
2022/07/30 07:42:52;;;;;;;12.30;6.03;;;22.60;42.00;;;;;;5061551;28;46619;-68
2022/07/30 07:45:18;;;;;;;9.93;5.73;;;22.50;42.20;;;;;;5061216;28;46374;-68
2022/07/30 07:47:48;;;;;;;11.87;5.53;;;22.40;41.80;;;;;;5058774;28;46488;-67
2022/07/30 07:50:15;;;;;;;11.43;5.57;;;22.40;42.00;;;;;;5062420;28;46407;-68
2022/07/30 07:52:40;;;;;;;8.30;5.70;;;22.50;43.10;;;;;;5060378;28;46408;-68
2022/07/30 07:55:07;;;;;;;14.30;5.20;;;22.60;41.30;;;;;;5062146;28;46573;-68
2022/07/30 07:57:40;;;;;;;10.23;5.40;;;22.70;40.80;;;;;;5060978;28;46416;-68
2022/07/30 08:00:08;;;;;;;17.27;5.60;;;22.90;40.70;;;;;;5061728;28;47190;-68
2022/07/30 08:02:33;;;;;;;20.23;5.27;;;23.00;40.50;;;;;;5075326;28;46358;-68
2022/07/30 08:04:59;;;;;;;9.77;5.43;;;23.00;40.50;;;;;;5069578;28;46415;-68
2022/07/30 08:07:25;;;;;;;9.90;5.13;;;23.00;40.30;;;;;;5061777;28;46373;-68
2022/07/30 08:09:50;;;;;;;10.83;5.10;;;22.90;39.80;;;;;;5060140;28;47099;-68
2022/07/30 08:12:16;;;;;;;8.70;4.60;;;22.90;39.70;;;;;;5061694;28;45833;-69
2022/07/30 08:14:42;;;;;;;9.53;5.03;;;23.00;39.10;;;;;;5059903;28;46493;-68
2022/07/30 08:17:08;;;;;;;9.50;4.60;;;23.00;38.90;;;;;;5060938;28;46503;-68
2022/07/30 08:19:33;;;;;;;7.53;4.77;;;23.00;38.90;;;;;;5061831;28;46440;-68
2022/07/30 08:21:59;;;;;;;12.73;5.27;;;23.00;38.20;;;;;;5065588;28;46506;-69
2022/07/30 08:24:25;;;;;;;10.60;5.03;;;22.90;37.30;;;;;;5060326;28;45867;-68
2022/07/30 08:26:51;;;;;;;10.90;4.90;;;23.00;37.30;;;;;;5059543;28;46966;-68
2022/07/30 08:29:16;;;;;;;9.17;4.70;;;23.00;36.80;;;;;;5060677;28;47227;-68
2022/07/30 08:31:42;;;;;;;10.57;4.53;;;23.20;37.00;;;;;;5061640;28;46347;-68
2022/07/30 08:34:08;;;;;;;10.50;4.53;;;23.30;36.60;;;;;;5059240;28;46514;-69
2022/07/30 08:36:34;;;;;;;11.73;4.20;;;23.10;36.90;;;;;;5060564;28;46322;-68
2022/07/30 08:38:59;;;;;;;17.80;4.53;;;23.20;37.00;;;;;;5060161;28;46767;-67
2022/07/30 08:41:26;;;;;;;8.80;3.93;;;23.40;36.90;;;;;;5060659;28;46481;-66
2022/07/30 08:43:53;;;;;;;8.90;4.50;;;23.50;35.90;;;;;;5054522;28;46585;-67
2022/07/30 08:46:24;;;;;;;7.93;4.27;;;23.60;35.50;;;;;;5058598;28;46486;-68
2022/07/30 08:48:51;;;;;;;10.70;4.60;;;23.50;35.30;;;;;;5061000;28;46496;-70
2022/07/30 08:51:18;;;;;;;13.00;4.53;;;23.60;34.80;;;;;;5059587;28;46421;-71
2022/07/30 08:53:45;;;;;;;8.00;4.20;;;23.70;34.60;;;;;;5058469;28;46465;-68
2022/07/30 08:56:11;;;;;;;9.90;3.50;;;23.80;33.90;;;;;;5058006;28;46559;-70
2022/07/30 08:58:37;;;;;;;8.23;5.13;;;23.90;33.00;;;;;;5058080;28;46839;-70
2022/07/30 09:01:04;;;;;;;6.40;3.90;;;23.50;32.50;;;;;;5059121;28;46568;-70
2022/07/30 09:03:31;;;;;;;7.47;4.30;;;23.60;33.30;;;;;;5062216;28;46525;-70
2022/07/30 09:05:57;;;;;;;11.30;4.40;;;23.80;32.70;;;;;;5058055;28;46515;-69
2022/07/30 09:08:23;;;;;;;13.50;4.10;;;23.90;32.80;;;;;;5059534;28;46409;-70
2022/07/30 09:10:49;;;;;;;11.40;4.20;;;24.00;32.50;;;;;;5058493;28;45951;-72
2022/07/30 09:13:34;;;;;;;11.57;4.13;;;24.30;32.10;;;;;;5059262;28;46381;-71
2022/07/30 09:16:01;;;;;;;8.50;3.47;;;24.20;30.50;;;;;;5059694;28;46497;-70
2022/07/30 09:18:32;;;;;;;10.77;4.67;;;24.20;30.30;;;;;;5060556;28;46447;-70
2022/07/30 09:21:13;;;;;;;13.73;4.53;;;24.40;30.00;;;;;;5059663;28;45904;-72
2022/07/30 09:23:39;;;;;;;7.47;3.90;;;24.30;29.60;;;;;;5063367;28;45831;-71
2022/07/30 09:26:05;;;;;;;13.93;3.70;;;24.40;29.60;;;;;;5060664;28;46402;-70
2022/07/30 09:28:32;;;;;;;8.00;3.60;;;24.40;28.90;;;;;;5059446;28;46732;-69
2022/07/30 09:30:58;;;;;;;11.43;3.90;;;24.40;29.10;;;;;;5057153;28;45881;-70
2022/07/30 09:33:39;;;;;;;8.63;3.80;;;24.50;28.20;;;;;;5059891;28;46480;-68
2022/07/30 09:36:09;;;;;;;8.50;3.80;;;24.60;27.40;;;;;;5059175;28;46455;-67
2022/07/30 09:38:50;;;;;;;8.73;3.30;;;24.70;27.50;;;;;;5060985;28;46500;-67
2022/07/30 09:41:21;;;;;;;5.97;2.90;;;24.80;27.50;;;;;;5056700;28;46386;-70
2022/07/30 09:43:49;;;;;;;9.23;3.60;;;24.90;27.30;;;;;;5060024;28;46359;-69
2022/07/30 09:46:15;;;;;;;6.30;3.67;;;25.00;27.30;;;;;;5059809;28;46450;-69
2022/07/30 09:48:41;;;;;;;4.70;2.97;;;25.00;26.50;;;;;;5055957;28;48429;-70
2022/07/30 09:51:07;;;;;;;6.97;3.67;;;25.00;26.90;;;;;;5057229;28;45931;-70
2022/07/30 09:53:34;;;;;;;11.90;3.30;;;25.20;26.00;;;;;;5055475;28;46554;-70
2022/07/30 09:56:00;;;;;;;14.20;3.33;;;25.20;25.40;;;;;;5058067;28;45878;-70
2022/07/30 09:58:41;;;;;;;9.67;3.10;;;25.20;26.10;;;;;;5056880;28;46388;-71
2022/07/30 10:01:08;;;;;;;7.00;3.47;;;25.50;25.50;;;;;;5058214;28;46449;-70
2022/07/30 10:03:40;;;;;;;5.20;3.30;;;25.70;25.00;;;;;;5058459;28;46429;-73
2022/07/30 10:06:06;;;;;;;5.40;2.47;;;25.60;25.30;;;;;;5057709;28;46381;-71
2022/07/30 10:08:42;;;;;;;4.87;2.93;;;25.80;24.40;;;;;;5057858;28;47708;-70
2022/07/30 10:11:13;;;;;;;6.23;2.73;;;25.80;23.10;;;;;;5060644;28;46459;-66
2022/07/30 10:13:40;;;;;;;7.13;2.90;;;25.50;23.20;;;;;;5058686;28;46479;-66
2022/07/30 10:16:06;;;;;;;6.50;2.60;;;25.90;23.70;;;;;;5058087;28;46401;-68
2022/07/30 10:18:33;;;;;;;7.47;3.33;;;26.40;22.40;;;;;;5058726;28;46720;-67
2022/07/30 10:21:00;;;;;;;7.10;2.90;;;26.50;22.30;;;;;;5060016;28;46390;-67
2022/07/30 10:23:28;;;;;;;6.63;2.80;;;26.10;22.30;;;;;;5059201;28;46472;-67
2022/07/30 10:26:00;;;;;;;6.07;3.50;;;25.70;22.50;;;;;;5057360;28;46667;-67
2022/07/30 10:28:28;;;;;;;15.60;3.27;;;25.20;22.30;;;;;;5057412;28;47266;-67
2022/07/30 10:30:55;;;;;;;5.60;2.50;;;25.20;23.20;;;;;;5057404;28;46454;-67
2022/07/30 10:33:22;;;;;;;4.73;2.90;;;25.30;22.60;;;;;;5056289;28;46521;-69
2022/07/30 10:35:48;;;;;;;9.70;3.20;;;25.00;22.90;;;;;;5058782;28;46369;-70
2022/07/30 10:38:15;;;;;;;3.87;2.40;;;25.20;22.80;;;;;;5057024;28;47190;-69
2022/07/30 10:40:46;;;;;;;6.77;2.80;;;25.30;22.40;;;;;;5061613;28;46440;-70
2022/07/30 10:44:01;;;;;;;12.07;2.57;;;25.60;22.40;;;;;;5060183;28;46411;-70
2022/07/30 10:47:04;;;;;;;4.90;2.70;;;25.90;22.10;;;;;;5059804;28;46489;-69
2022/07/30 10:49:30;;;;;;;7.07;2.83;;;26.10;21.40;;;;;;5062162;28;46468;-68
2022/07/30 10:51:56;;;;;;;4.93;2.50;;;25.40;20.20;;;;;;5061758;28;46496;-70
2022/07/30 10:54:43;;;;;;;8.97;3.10;;;25.40;21.10;;;;;;5061039;28;46385;-70
2022/07/30 10:57:10;;;;;;;5.97;3.33;;;25.00;21.80;;;;;;5061482;28;46257;-68
2022/07/30 10:59:54;;;;;;;7.73;3.50;;;25.00;22.70;;;;;;5061932;28;46489;-69
2022/07/30 11:02:21;;;;;;;7.70;3.70;;;24.20;22.10;;;;;;5058643;28;46564;-70
2022/07/30 11:04:48;;;;;;;7.43;3.33;;;24.20;23.10;;;;;;5058553;28;46438;-69
2022/07/30 11:07:22;;;;;;;12.07;3.47;;;23.90;23.60;;;;;;5061063;28;46522;-71
2022/07/30 11:09:53;;;;;;;8.07;3.20;;;23.80;24.00;;;;;;5059489;28;46890;-71
2022/07/30 11:12:40;;;;;;;5.80;2.97;;;24.20;22.30;;;;;;5060413;28;46209;-70
2022/07/30 11:15:09;;;;;;;7.60;2.63;;;24.10;23.00;;;;;;5060540;28;46673;-69
2022/07/30 11:18:16;;;;;;;7.27;2.83;;;24.00;22.90;;;;;;5060636;28;46432;-70
2022/07/30 11:20:41;;;;;;;4.90;2.60;;;24.00;23.20;;;;;;5059946;28;46315;-71
2022/07/30 11:23:08;;;;;;;9.40;3.20;;;24.70;21.40;;;;;;5061516;28;46640;-71
2022/07/30 11:25:34;;;;;;;5.60;2.53;;;25.00;21.90;;;;;;5061440;28;46413;-69
2022/07/30 11:28:00;;;;;;;7.03;2.60;;;25.20;21.00;;;;;;5060598;28;46848;-70
2022/07/30 11:30:28;;;;;;;9.30;1.90;;;25.60;20.30;;;;;;5060837;28;47033;-68
2022/07/30 11:32:55;;;;;;;6.30;2.30;;;25.90;18.30;;;;;;5060272;28;46416;-69
2022/07/30 11:35:24;;;;;;;8.23;2.30;;;26.00;18.60;;;;;;5061946;28;46463;-70
2022/07/30 11:37:55;;;;;;;3.73;2.20;;;26.20;18.40;;;;;;5060815;28;46334;-69
2022/07/30 11:40:23;;;;;;;5.10;2.77;;;26.50;18.20;;;;;;5060342;28;47333;-70
2022/07/30 11:42:50;;;;;;;5.50;2.50;;;26.00;16.30;;;;;;5061539;28;46681;-70
2022/07/30 11:45:16;;;;;;;4.00;2.10;;;26.00;16.90;;;;;;5059649;28;46401;-69
2022/07/30 11:47:47;;;;;;;3.90;2.30;;;26.00;16.20;;;;;;5060810;28;46717;-69
2022/07/30 11:50:24;;;;;;;5.90;2.60;;;25.80;16.80;;;;;;5059207;28;48298;-69
2022/07/30 11:52:54;;;;;;;4.70;2.33;;;25.60;16.60;;;;;;5060728;28;46493;-70
2022/07/30 11:55:29;;;;;;;6.70;2.43;;;25.20;17.00;;;;;;5057194;28;46405;-70
2022/07/30 11:57:56;;;;;;;5.70;2.30;;;24.90;17.50;;;;;;5060531;28;46492;-69
2022/07/30 12:00:22;;;;;;;6.23;2.33;;;24.80;17.90;;;;;;5060458;27;46441;-65
2022/07/30 12:02:49;;;;;;;6.07;2.97;;;25.00;17.70;;;;;;5062836;28;46419;-65
2022/07/30 12:05:15;;;;;;;3.40;2.20;;;25.40;17.30;;;;;;5061622;28;46303;-67
2022/07/30 12:07:42;;;;;;;3.80;2.50;;;25.80;16.70;;;;;;5060287;28;46440;-70
2022/07/30 12:10:18;;;;;;;6.20;2.30;;;25.70;17.30;;;;;;5061378;28;46432;-68
2022/07/30 12:12:45;;;;;;;12.77;2.50;;;25.60;15.80;;;;;;5060455;28;46160;-68
2022/07/30 12:15:33;;;;;;;5.13;2.40;;;25.90;15.30;;;;;;5059641;28;46393;-67
2022/07/30 12:18:00;;;;;;;5.33;2.10;;;26.00;14.20;;;;;;5061881;28;46461;-68
2022/07/30 12:20:27;;;;;;;4.93;2.30;;;25.60;14.70;;;;;;5059052;28;46375;-67
2022/07/30 12:22:53;;;;;;;4.20;2.30;;;25.40;15.10;;;;;;5059715;28;46385;-67
2022/07/30 12:25:19;;;;;;;5.43;2.70;;;25.00;15.90;;;;;;5060581;28;46393;-67
2022/07/30 12:27:46;;;;;;;5.27;2.63;;;24.60;15.40;;;;;;5058471;28;46607;-68
2022/07/30 12:30:13;;;;;;;5.13;2.70;;;24.50;15.80;;;;;;5060171;28;48064;-67
2022/07/30 12:32:39;;;;;;;9.13;2.60;;;24.50;16.00;;;;;;5058617;28;46374;-68
2022/07/30 12:35:05;;;;;;;6.20;3.00;;;24.50;15.40;;;;;;5058670;28;45741;-69
2022/07/30 12:37:30;;;;;;;9.50;2.53;;;24.50;15.80;;;;;;5059682;28;46652;-67
2022/07/30 12:40:11;;;;;;;4.00;2.50;;;24.50;16.00;;;;;;5059303;28;47068;-66
2022/07/30 12:42:49;;;;;;;9.50;2.23;;;25.00;16.00;;;;;;5058531;28;46409;-67
2022/07/30 12:45:32;;;;;;;3.87;2.30;;;25.50;15.70;;;;;;5058495;28;46397;-67
2022/07/30 12:48:00;;;;;;;6.97;2.20;;;26.10;14.80;;;;;;5057359;28;46509;-67
2022/07/30 12:50:27;;;;;;;4.43;2.33;;;26.30;14.00;;;;;;5059791;28;46418;-67